CheckWX is a tool to help pilots better visualize weather data.  It is not intended as a substitute for an official pre-flight weather briefing.

04:40:53 UTC

CYRL METAR
Red Lake Airport
Red Lake, Canada
Current

3 hours ago

CYRL 250200Z 30006KT 15SM FEW040 11/M01 A2963 RMK SC2 LAST STFD OBS/NEXT 250900UTC SLP044 DENSITY ALT 1500FT
Observed
Apr-25 @ 02:00 UTC
Wind
  • 300° at 6 KTS
Visibility
15 SM
Flight Rules
VFR
Cloud Levels
  • Few at 4,000' AGL
Temperature
11°C / 52°F
Dewpoint
-1°C / 30°F
Humidity
44%
Altimeter
29.63" Hg
Pressure
1003.42 hPa
Previous

4 hours ago

CYRL 250100Z 31005KT 15SM SCT040TCU SCT080 13/M01 A2960 RMK TCU3AS1 AS TR TCU E QUAD SLP035 DENSITY ALT 1700FT
Observed
Apr-25 @ 01:00 UTC
Wind
  • 310° at 5 KTS
Visibility
15 SM
Flight Rules
VFR
Cloud Levels
  • Scattered at 4,000' AGL
  • Scattered at 8,000' AGL
Temperature
13°C / 55°F
Dewpoint
-1°C / 30°F
Humidity
38%
Altimeter
29.6" Hg
Pressure
1002.42 hPa
Previous

5 hours ago

CYRL 250000Z 29012G23KT 270V330 15SM SCT040TCU BKN080 15/01 A2959 RMK TCU4AS1 TCU E QUAD SLP031 DENSITY ALT 2000FT
Observed
Apr-25 @ 00:00 UTC
Wind
  • 290° at 12 KTS
  • Gusting to 23 KTS
Visibility
15 SM
Flight Rules
VFR
Cloud Levels
  • Scattered at 4,000' AGL
  • Broken at 8,000' AGL
Temperature
15°C / 59°F
Dewpoint
C / 34°F
Humidity
39%
Altimeter
29.59" Hg
Pressure
1002.02 hPa